الصفحة الرئيسية
METAR-TAF:

METAR-TAF

مطار :

لاس فيغاس, نيومكسيكو, الولايات المتحدة

دائرة عرض: 35-39-15N, خط طول: 105-08-33W, ارتفاع: 2096 متر

مراقبة الطقس الحالي

تاريخ ووقت الإصدار 7 دقيقة قبل الساعة 03:53UTC
ريح 8 عقدة من الغرب/الجنوب الغربي
درجة الحرارة 11°درجة مئوية
الرطوبة 25%
ضغط 1020 hPa
الرؤية: 16.1 كم
سماء صافية

METAR: KLVS 140353Z AUTO 25008KT 10SM CLR 11/M08 A3013 RMK AO2 SLP117 T01111083

زمن: 22:00 (04:00 UTC)

توقعات

تاريخ ووقت الإصدار 4ساعات و 40 دقيقة قبل الساعة 23:20UTC
التوقعات صالحة من14 الساعة 00 UTC إلى 14 الساعة 24 UTC
ريح 7 عقدة من الجنوب الغربي
الرؤية: 10 كم
سماء صافية
من 14 الساعة 1800 UTC
ريح 15 عقدة من الغرب/الجنوب الغربي تتزايد حتى 23 عقدة
الرؤية: 10 كم
سماء صافية

TAF: KLVS 132320Z 1400/1424 23007KT P6SM SKC FM141800 25015G23KT P6SM SKC

أرصاد الطقس والتوقعات من أكثر من 4000 مطار (تقارير الطقس للمطار METAR والتنبؤ بالطقس بالمطارTAF).

المحطات المتاحة هي النقط الصفراء والحمراء على الخريطة.

حرك المؤشر فوق النقطة لمعرفة اسم المحطة.

ثم انقر لمعرفة أرصاد وتوقعات الطقس.

لتغيير الخارطة: اضغط على الأزرار الخضراء مع رمز الصليب الأسود للتكبير. على الزر الأخضر مع شرطة للتصغير، أو على الأسهم الخضراء للخرائط المجاورة.


METAR-TAF: